createdAt,value
2019-04-23T00:01:08.212Z,16.10
2019-04-23T00:03:30.576Z,16.10
2019-04-23T00:06:07.165Z,16.00
2019-04-23T00:08:36.210Z,16.00
2019-04-23T00:11:06.038Z,15.90
2019-04-23T00:13:38.511Z,15.80
2019-04-23T00:18:42.295Z,15.80
2019-04-23T00:21:24.805Z,15.80
2019-04-23T00:23:59.550Z,15.70
2019-04-23T00:26:24.072Z,15.80
2019-04-23T00:28:58.851Z,15.80
2019-04-23T00:33:50.928Z,15.90
2019-04-23T00:36:27.533Z,15.90
2019-04-23T00:38:50.220Z,15.90
2019-04-23T00:41:25.307Z,16.00
2019-04-23T00:44:02.007Z,16.00
2019-04-23T00:46:29.020Z,16.00
2019-04-23T00:51:32.950Z,16.00
2019-04-23T00:53:56.591Z,16.00
2019-04-23T00:56:42.187Z,16.10
2019-04-23T00:59:00.684Z,16.10
2019-04-23T01:04:18.702Z,16.10
2019-04-23T01:06:32.568Z,16.10
2019-04-23T01:09:26.733Z,16.00
2019-04-23T01:11:37.557Z,15.90
2019-04-23T01:14:08.155Z,15.80
2019-04-23T01:16:38.246Z,15.80
2019-04-23T01:19:22.462Z,15.80
2019-04-23T01:21:30.969Z,15.80
2019-04-23T01:24:16.013Z,15.70
2019-04-23T01:30:00.003Z,15.70
2019-04-23T01:32:25.687Z,15.70
2019-04-23T01:35:06.977Z,15.70
2019-04-23T01:37:30.358Z,15.70
2019-04-23T01:39:58.169Z,15.70
2019-04-23T01:42:38.325Z,15.70
2019-04-23T01:45:06.990Z,15.70
2019-04-23T01:47:33.551Z,15.70
2019-04-23T01:50:11.756Z,15.70
2019-04-23T01:52:38.108Z,15.60
2019-04-23T01:55:09.982Z,15.70
2019-04-23T01:57:39.146Z,15.70
2019-04-23T02:02:46.492Z,15.60
2019-04-23T02:05:15.686Z,15.60
2019-04-23T02:07:50.464Z,15.60
2019-04-23T02:10:22.142Z,15.60
2019-04-23T02:12:47.730Z,15.60
2019-04-23T02:15:16.881Z,15.50
2019-04-23T02:17:52.104Z,15.50
2019-04-23T02:20:21.891Z,15.50
2019-04-23T02:23:14.832Z,15.50
2019-04-23T02:28:09.142Z,15.50
2019-04-23T02:31:18.555Z,15.50
2019-04-23T02:38:22.145Z,15.50
2019-04-23T02:43:21.337Z,15.40
2019-04-23T02:45:56.921Z,15.40
2019-04-23T02:50:43.894Z,15.30
2019-04-23T03:01:15.221Z,15.10
2019-04-23T03:03:38.435Z,15.20
2019-04-23T03:08:36.328Z,15.20
2019-04-23T03:16:15.791Z,15.20
2019-04-23T03:19:06.987Z,15.20
2019-04-23T03:27:22.883Z,15.10
2019-04-23T03:39:56.584Z,15.20
2019-04-23T03:45:02.294Z,15.10
2019-04-23T03:55:06.215Z,15.00
2019-04-23T04:00:05.195Z,15.00
2019-04-23T04:02:42.042Z,15.00
2019-04-23T04:05:22.635Z,15.00
2019-04-23T04:07:40.350Z,15.00
2019-04-23T04:10:02.509Z,14.90
2019-04-23T04:18:03.983Z,14.90
2019-04-23T04:20:19.872Z,14.80
2019-04-23T04:22:50.171Z,14.80
2019-04-23T04:25:17.051Z,14.80
2019-04-23T04:27:54.481Z,14.80
2019-04-23T04:33:00.434Z,14.70
2019-04-23T04:43:02.236Z,14.60
2019-04-23T04:45:30.466Z,14.60
2019-04-23T04:50:26.457Z,14.60
2019-04-23T04:58:00.537Z,14.50
2019-04-23T05:00:32.912Z,14.50
2019-04-23T05:03:17.974Z,14.50
2019-04-23T05:05:51.079Z,14.50
2019-04-23T05:08:00.695Z,14.50
2019-04-23T05:13:13.824Z,14.50
2019-04-23T05:15:28.386Z,14.50
2019-04-23T05:18:23.881Z,14.50
2019-04-23T05:20:53.447Z,14.50
2019-04-23T05:23:26.978Z,14.50
2019-04-23T05:25:51.349Z,14.50
2019-04-23T05:28:28.434Z,14.50
2019-04-23T05:31:01.581Z,14.50
2019-04-23T05:33:22.430Z,14.50
2019-04-23T05:36:12.649Z,14.60
2019-04-23T05:38:37.701Z,14.60
2019-04-23T05:41:03.531Z,14.60
2019-04-23T05:43:26.168Z,14.60
2019-04-23T05:45:56.876Z,14.60
2019-04-23T05:48:49.043Z,14.60
2019-04-23T05:51:04.248Z,14.60
2019-04-23T05:53:33.392Z,14.60
2019-04-23T05:56:06.484Z,14.60
2019-04-23T05:58:39.997Z,14.70
2019-04-23T06:09:10.565Z,14.80
2019-04-23T06:11:45.068Z,14.80
2019-04-23T06:14:11.689Z,14.80
2019-04-23T06:16:41.605Z,14.90
2019-04-23T06:19:12.888Z,14.90
2019-04-23T06:24:16.245Z,15.00
2019-04-23T06:29:20.996Z,15.00
2019-04-23T06:36:46.056Z,15.20
2019-04-23T06:39:18.696Z,15.20
2019-04-23T06:41:50.118Z,15.30
2019-04-23T06:44:25.609Z,15.40
2019-04-23T06:49:30.730Z,15.40
2019-04-23T06:52:17.593Z,15.50
2019-04-23T06:54:36.515Z,15.50
2019-04-23T06:57:10.208Z,15.50
2019-04-23T06:59:47.235Z,15.50
2019-04-23T07:02:06.209Z,15.60
2019-04-23T07:04:34.295Z,15.70
2019-04-23T07:07:29.102Z,15.80
2019-04-23T07:09:26.211Z,15.90
2019-04-23T07:12:05.273Z,15.90
2019-04-23T07:14:44.006Z,16.00
2019-04-23T07:17:03.907Z,16.10
2019-04-23T07:22:14.499Z,16.30
2019-04-23T07:24:45.325Z,16.40
2019-04-23T07:27:15.202Z,16.40
2019-04-23T07:29:40.484Z,16.50
2019-04-23T07:32:11.610Z,16.60
2019-04-23T07:34:49.374Z,16.70
2019-04-23T07:37:34.368Z,16.80
2019-04-23T07:42:53.080Z,17.00
2019-04-23T07:48:22.386Z,17.20
2019-04-23T07:50:49.098Z,17.40
2019-04-23T07:55:56.795Z,17.50
2019-04-23T07:58:23.425Z,17.70
2019-04-23T08:00:48.930Z,17.90
2019-04-23T08:03:27.334Z,18.00
2019-04-23T08:08:22.949Z,18.40
2019-04-23T08:13:53.602Z,19.00
2019-04-23T08:18:52.377Z,19.30
2019-04-23T08:21:15.119Z,19.30
2019-04-23T08:24:17.035Z,19.20
2019-04-23T08:26:52.044Z,19.30
2019-04-23T08:29:18.429Z,19.30
2019-04-23T08:34:32.519Z,19.40
2019-04-23T08:37:03.192Z,19.50
2019-04-23T08:39:32.201Z,19.70
2019-04-23T08:42:21.576Z,19.90
2019-04-23T08:45:07.518Z,20.00
2019-04-23T08:47:27.764Z,20.10
2019-04-23T08:49:56.730Z,20.50
2019-04-23T08:52:30.058Z,20.50
2019-04-23T08:55:00.840Z,20.60
2019-04-23T08:57:35.074Z,20.80
2019-04-23T09:00:05.933Z,20.70
2019-04-23T09:02:40.419Z,20.70
2019-04-23T09:05:09.568Z,20.70
2019-04-23T09:07:35.577Z,20.90
2019-04-23T09:10:11.453Z,20.90
2019-04-23T09:12:44.311Z,20.80
2019-04-23T09:15:16.805Z,20.80
2019-04-23T09:17:47.626Z,20.80
2019-04-23T09:22:46.461Z,20.90
2019-04-23T09:25:20.293Z,21.00
2019-04-23T09:27:44.229Z,21.20
2019-04-23T09:30:21.362Z,21.30
2019-04-23T09:32:59.924Z,21.50
2019-04-23T09:35:31.220Z,21.50
2019-04-23T09:38:31.901Z,21.80
2019-04-23T09:41:22.316Z,22.30
2019-04-23T09:44:27.738Z,22.60
2019-04-23T09:46:53.116Z,22.90
2019-04-23T09:51:51.148Z,23.30
2019-04-23T09:54:27.168Z,23.40
2019-04-23T09:57:04.579Z,23.60
2019-04-23T10:01:52.877Z,24.60
2019-04-23T10:04:16.375Z,25.20
2019-04-23T10:06:36.680Z,25.10
2019-04-23T10:09:07.406Z,25.10
2019-04-23T10:11:34.708Z,25.00
2019-04-23T10:14:06.060Z,24.70
2019-04-23T10:16:36.844Z,24.80
2019-04-23T10:19:07.929Z,24.90
2019-04-23T10:21:37.581Z,25.30
2019-04-23T10:24:07.495Z,25.40
2019-04-23T10:26:37.943Z,25.50
2019-04-23T10:29:18.145Z,25.60
2019-04-23T10:31:47.570Z,25.70
2019-04-23T10:34:17.178Z,25.80
2019-04-23T10:36:47.410Z,26.20
2019-04-23T10:39:22.084Z,26.20
2019-04-23T10:41:50.339Z,26.00
2019-04-23T10:44:38.099Z,26.10
2019-04-23T10:47:55.873Z,26.00
2019-04-23T10:50:46.517Z,26.00
2019-04-23T10:53:21.457Z,26.10
2019-04-23T10:55:49.968Z,25.90
2019-04-23T10:58:15.741Z,25.80
2019-04-23T11:00:44.825Z,25.80
2019-04-23T11:03:32.073Z,26.00
2019-04-23T11:05:53.925Z,26.50
2019-04-23T11:08:17.212Z,27.00
2019-04-23T11:10:48.426Z,27.70
2019-04-23T11:13:31.444Z,27.70
2019-04-23T11:16:37.114Z,28.30
2019-04-23T11:18:40.142Z,28.40
2019-04-23T11:21:05.355Z,28.40
2019-04-23T11:23:34.421Z,28.10
2019-04-23T11:26:09.069Z,27.50
2019-04-23T11:28:32.794Z,27.10
2019-04-23T11:31:17.300Z,27.10
2019-04-23T11:33:42.998Z,27.00
2019-04-23T11:38:54.486Z,27.00
2019-04-23T11:41:23.386Z,27.20
2019-04-23T11:43:48.930Z,27.20
2019-04-23T11:46:32.270Z,27.10
2019-04-23T11:48:59.647Z,27.20
2019-04-23T11:51:46.818Z,27.20
2019-04-23T11:56:45.374Z,26.80
2019-04-23T11:58:55.107Z,26.80
2019-04-23T12:02:05.352Z,26.60
2019-04-23T12:04:36.898Z,26.80
2019-04-23T12:07:22.810Z,26.90
2019-04-23T12:10:23.533Z,26.80
2019-04-23T12:12:59.049Z,26.70
2019-04-23T12:15:19.668Z,26.70
2019-04-23T12:20:25.668Z,26.50
2019-04-23T12:23:03.062Z,26.40
2019-04-23T12:25:25.097Z,26.80
2019-04-23T12:27:42.191Z,27.10
2019-04-23T12:30:36.192Z,27.00
2019-04-23T12:33:04.755Z,27.00
2019-04-23T12:35:22.473Z,27.00
2019-04-23T12:38:08.937Z,26.80
2019-04-23T12:45:51.954Z,26.80
2019-04-23T12:48:25.656Z,26.80
2019-04-23T12:50:48.519Z,26.80
2019-04-23T12:53:29.317Z,26.80
2019-04-23T12:58:21.958Z,26.80
2019-04-23T13:00:48.841Z,26.80
2019-04-23T13:03:33.057Z,26.90
2019-04-23T13:05:44.446Z,27.10
2019-04-23T13:08:36.731Z,27.00
2019-04-23T13:10:57.706Z,26.70
2019-04-23T13:15:58.337Z,26.40
2019-04-23T13:20:53.926Z,25.80
2019-04-23T13:23:29.783Z,25.60
2019-04-23T13:25:59.639Z,25.60
2019-04-23T13:28:37.580Z,25.80
2019-04-23T13:33:52.202Z,26.20
2019-04-23T13:38:40.290Z,26.80
2019-04-23T13:41:23.389Z,27.20
2019-04-23T13:46:33.115Z,27.60
2019-04-23T13:48:42.001Z,27.80
2019-04-23T13:51:21.001Z,28.00
2019-04-23T13:56:25.233Z,28.20
2019-04-23T13:58:55.051Z,28.40
2019-04-23T14:01:30.748Z,28.90
2019-04-23T14:04:11.975Z,29.00
2019-04-23T14:06:29.678Z,28.80
2019-04-23T14:08:59.754Z,28.70
2019-04-23T14:11:29.474Z,28.70
2019-04-23T14:14:08.275Z,28.70
2019-04-23T14:26:35.148Z,26.90
2019-04-23T14:29:07.156Z,26.40
2019-04-23T14:31:43.309Z,25.90
2019-04-23T14:34:11.273Z,25.50
2019-04-23T14:36:55.542Z,25.30
2019-04-23T14:39:18.726Z,25.20
2019-04-23T14:42:16.682Z,25.20
2019-04-23T14:44:23.623Z,25.20
2019-04-23T14:47:03.490Z,25.50
2019-04-23T14:49:36.071Z,25.50
2019-04-23T14:52:06.627Z,25.60
2019-04-23T14:55:17.902Z,25.50
2019-04-23T14:57:15.842Z,25.50
2019-04-23T14:59:34.694Z,25.30
2019-04-23T15:02:12.519Z,25.20
2019-04-23T15:04:43.812Z,24.90
2019-04-23T15:07:18.241Z,24.80
2019-04-23T15:15:10.459Z,24.80
2019-04-23T15:17:20.456Z,24.80
2019-04-23T15:20:00.214Z,24.80
2019-04-23T15:22:57.352Z,24.70
2019-04-23T15:25:15.210Z,24.60
2019-04-23T15:28:03.690Z,24.70
2019-04-23T15:29:56.019Z,24.80
2019-04-23T15:32:46.806Z,25.10
2019-04-23T15:35:16.684Z,25.30
2019-04-23T15:37:58.429Z,25.40
2019-04-23T15:40:11.175Z,25.40
2019-04-23T15:42:45.268Z,25.20
2019-04-23T15:45:08.085Z,25.20
2019-04-23T15:47:40.053Z,25.30
2019-04-23T15:50:14.503Z,25.40
2019-04-23T15:55:14.192Z,25.10
2019-04-23T15:58:09.846Z,25.00
2019-04-23T16:00:13.057Z,24.90
2019-04-23T16:02:19.340Z,24.70
2019-04-23T16:04:49.056Z,24.40
2019-04-23T16:07:37.234Z,24.30
2019-04-23T16:10:34.201Z,24.20
2019-04-23T16:12:54.285Z,24.20
2019-04-23T16:15:35.466Z,24.20
2019-04-23T16:18:03.928Z,24.10
2019-04-23T16:20:47.364Z,24.10
2019-04-23T16:22:55.239Z,24.10
2019-04-23T16:25:36.345Z,24.20
2019-04-23T16:28:09.460Z,24.00
2019-04-23T16:30:46.487Z,23.80
2019-04-23T16:33:18.636Z,23.70
2019-04-23T16:36:05.264Z,23.50
2019-04-23T16:38:36.055Z,23.40
2019-04-23T16:40:51.437Z,23.30
2019-04-23T16:46:03.005Z,23.20
2019-04-23T16:56:13.387Z,23.00
2019-04-23T16:58:54.574Z,23.00
2019-04-23T17:01:07.259Z,23.00
2019-04-23T17:03:40.240Z,22.90
2019-04-23T17:06:12.331Z,22.80
2019-04-23T17:11:16.088Z,22.70
2019-04-23T17:13:44.737Z,22.60
2019-04-23T17:16:28.523Z,22.60
2019-04-23T17:18:51.493Z,22.50
2019-04-23T17:21:14.682Z,22.50
2019-04-23T17:24:07.922Z,22.40
2019-04-23T17:26:19.035Z,22.40
2019-04-23T17:28:47.561Z,22.30
2019-04-23T17:34:01.023Z,22.30
2019-04-23T17:39:25.495Z,22.30
2019-04-23T17:45:03.604Z,22.30
2019-04-23T17:47:28.575Z,22.40
2019-04-23T17:52:58.399Z,22.30
2019-04-23T17:55:07.644Z,22.30
2019-04-23T17:57:37.970Z,22.20
2019-04-23T18:00:17.871Z,22.10
2019-04-23T18:05:46.052Z,22.00
2019-04-23T18:09:07.689Z,21.90
2019-04-23T18:11:29.573Z,21.80
2019-04-23T18:14:08.232Z,21.70
2019-04-23T18:16:41.284Z,21.60
2019-04-23T18:19:11.080Z,21.50
2019-04-23T18:21:44.621Z,21.40
2019-04-23T18:24:41.203Z,21.30
2019-04-23T18:27:15.484Z,21.20
2019-04-23T18:33:01.297Z,20.90
2019-04-23T18:37:36.046Z,20.70
2019-04-23T18:39:58.933Z,20.60
2019-04-23T18:42:40.415Z,20.50
2019-04-23T18:45:07.540Z,20.40
2019-04-23T18:47:40.276Z,20.30
2019-04-23T18:50:11.473Z,20.20
2019-04-23T18:52:55.550Z,20.00
2019-04-23T18:55:18.341Z,20.00
2019-04-23T18:57:48.545Z,19.90
2019-04-23T19:00:21.954Z,19.80
2019-04-23T19:03:01.346Z,19.70
2019-04-23T19:05:39.831Z,19.70
2019-04-23T19:08:52.100Z,19.60
2019-04-23T19:11:33.947Z,19.50
2019-04-23T19:13:59.770Z,19.40
2019-04-23T19:16:33.893Z,19.40
2019-04-23T19:19:02.575Z,19.40
2019-04-23T19:24:21.832Z,19.30
2019-04-23T19:29:11.659Z,19.60
2019-04-23T19:36:58.609Z,19.70
2019-04-23T19:39:33.707Z,19.70
2019-04-23T19:44:35.901Z,19.70
2019-04-23T19:49:35.645Z,19.70
2019-04-23T19:54:47.691Z,19.60
2019-04-23T19:57:09.305Z,19.60
2019-04-23T20:12:05.921Z,19.40
2019-04-23T20:19:44.022Z,19.30
2019-04-23T20:27:17.981Z,19.20
2019-04-23T20:30:20.627Z,19.10
2019-04-23T20:31:59.029Z,19.20
2019-04-23T20:35:18.068Z,19.10
2019-04-23T20:40:27.947Z,19.00
2019-04-23T20:42:52.896Z,19.00
2019-04-23T20:45:39.623Z,18.90
2019-04-23T20:47:51.464Z,18.90
2019-04-23T20:50:20.848Z,18.80
2019-04-23T20:52:56.309Z,18.80
2019-04-23T20:55:40.752Z,18.80
2019-04-23T20:58:14.050Z,18.70
2019-04-23T21:00:59.175Z,18.70
2019-04-23T21:03:39.096Z,18.70
2019-04-23T21:06:01.885Z,18.60
2019-04-23T21:10:55.403Z,18.60
2019-04-23T21:13:50.698Z,18.60
2019-04-23T21:16:01.565Z,18.50
2019-04-23T21:18:35.964Z,18.50
2019-04-23T21:21:09.517Z,18.40
2019-04-23T21:23:38.109Z,18.40
2019-04-23T21:26:01.918Z,18.30
2019-04-23T21:31:16.068Z,18.20
2019-04-23T21:36:49.347Z,18.10
2019-04-23T21:42:32.103Z,18.10
2019-04-23T21:47:42.593Z,18.00
2019-04-23T21:50:19.731Z,18.00
2019-04-23T21:52:51.215Z,18.00
2019-04-23T21:55:02.562Z,18.00
2019-04-23T21:57:46.400Z,17.90
2019-04-23T21:59:59.235Z,17.90
2019-04-23T22:02:54.045Z,17.90
2019-04-23T22:05:11.623Z,17.90
2019-04-23T22:07:46.154Z,17.90
2019-04-23T22:12:52.803Z,17.90
2019-04-23T22:15:12.632Z,17.90
2019-04-23T22:17:44.655Z,17.80
2019-04-23T22:20:21.045Z,17.80
2019-04-23T22:22:57.205Z,17.80
2019-04-23T22:25:13.171Z,17.80
2019-04-23T22:27:53.080Z,17.70
2019-04-23T22:30:22.704Z,17.70
2019-04-23T22:32:56.096Z,17.60
2019-04-23T22:38:01.792Z,17.60
2019-04-23T22:40:18.549Z,17.50
2019-04-23T22:43:09.808Z,17.50
2019-04-23T22:45:28.263Z,17.40
2019-04-23T22:48:04.630Z,17.40
2019-04-23T22:50:33.585Z,17.40
2019-04-23T22:53:02.707Z,17.40
2019-04-23T22:55:34.864Z,17.40
2019-04-23T22:58:04.746Z,17.30
2019-04-23T23:00:24.820Z,17.20
2019-04-23T23:03:24.371Z,17.20
2019-04-23T23:06:06.431Z,17.20
2019-04-23T23:08:14.669Z,17.10
2019-04-23T23:10:50.691Z,17.10
2019-04-23T23:13:21.769Z,17.00
2019-04-23T23:15:54.684Z,17.00
2019-04-23T23:18:19.848Z,16.90
2019-04-23T23:20:52.691Z,16.90
2019-04-23T23:23:21.337Z,16.80
2019-04-23T23:25:53.949Z,16.80
2019-04-23T23:31:03.940Z,16.70
2019-04-23T23:36:03.545Z,16.60
2019-04-23T23:38:33.446Z,16.60
2019-04-23T23:43:29.965Z,16.50
2019-04-23T23:46:15.259Z,16.50
2019-04-23T23:48:36.100Z,16.50
2019-04-23T23:51:10.133Z,16.50
2019-04-23T23:56:11.251Z,16.40
